Time;durP1;ratioP1;P1;durP2;ratioP2;P2;SDS_P1;SDS_P2;PMS_P1;PMS_P2;Temp;Humidity;BMP_temperature;BMP_pressure;BME280_temperature;BME280_humidity;BME280_pressure;Samples;Min_cycle;Max_cycle;Signal;HPM_P1;HPM_P2
2023/01/08 00:03:35;;;;;;;41.00;13.38;;;;;;;-13.04;100.00;102729.08;1713071;82;20995;-84
2023/01/08 00:06:04;;;;;;;35.75;12.33;;;;;;;-13.04;100.00;102733.81;1713069;83;21587;-85
2023/01/08 00:08:31;;;;;;;44.77;13.03;;;;;;;-13.08;100.00;102738.72;1712252;83;21141;-85
2023/01/08 00:10:58;;;;;;;34.75;12.53;;;;;;;-13.07;100.00;102745.59;1712678;83;21016;-84
2023/01/08 00:13:25;;;;;;;37.48;12.60;;;;;;;-13.07;100.00;102746.05;1712145;83;21602;-84
2023/01/08 00:19:33;;;;;;;37.55;12.98;;;;;;;-13.09;100.00;102744.83;1739822;81;21036;-85
2023/01/08 00:21:59;;;;;;;32.88;12.43;;;;;;;-13.09;100.00;102740.06;1726942;82;20998;-90
2023/01/08 00:24:25;;;;;;;35.68;11.78;;;;;;;-13.13;100.00;102748.41;1735469;82;21017;-85
2023/01/08 00:26:51;;;;;;;35.08;11.80;;;;;;;-13.11;100.00;102754.40;1764166;80;20995;-84
2023/01/08 00:29:17;;;;;;;31.10;10.93;;;;;;;-13.12;100.00;102757.03;1765395;80;21177;-85
2023/01/08 00:31:44;;;;;;;31.10;11.38;;;;;;;-13.12;100.00;102762.22;1768575;80;21012;-85
2023/01/08 00:34:10;;;;;;;41.95;13.28;;;;;;;-13.14;100.00;102765.34;1775832;80;21082;-82
2023/01/08 00:36:36;;;;;;;40.28;12.10;;;;;;;-13.11;100.00;102760.04;1785376;80;20991;-85
2023/01/08 00:39:03;;;;;;;31.60;12.10;;;;;;;-13.13;100.00;102758.78;1769079;80;20989;-85
2023/01/08 00:41:29;;;;;;;31.30;11.78;;;;;;;-13.14;100.00;102756.26;1767400;80;21907;-86
2023/01/08 00:43:55;;;;;;;32.28;11.63;;;;;;;-13.14;100.00;102753.66;1769046;80;21618;-90
2023/01/08 00:46:21;;;;;;;34.75;12.18;;;;;;;-13.15;100.00;102757.98;1735595;80;21603;-83
2023/01/08 00:48:48;;;;;;;30.08;11.20;;;;;;;-13.13;100.00;102756.64;1777606;80;21523;-85
2023/01/08 00:51:14;;;;;;;31.60;12.15;;;;;;;-13.15;100.00;102758.44;1777918;80;21480;-84
2023/01/08 00:53:40;;;;;;;35.85;11.68;;;;;;;-13.17;100.00;102758.50;1771741;79;21777;-82
2023/01/08 00:56:09;;;;;;;35.88;12.03;;;;;;;-13.16;100.00;102767.12;1746779;79;21515;-85
2023/01/08 00:58:36;;;;;;;38.95;11.18;;;;;;;-13.19;100.00;102760.30;1765014;80;21579;-85
2023/01/08 01:01:13;;;;;;;31.85;11.90;;;;;;;-13.13;100.00;102765.72;1768566;80;21579;-84
2023/01/08 01:07:20;;;;;;;39.13;12.93;;;;;;;-13.15;100.00;102759.73;1777018;80;21528;-85
2023/01/08 01:09:46;;;;;;;35.08;12.47;;;;;;;-13.15;100.00;102759.73;1766746;79;21492;-86
2023/01/08 01:12:13;;;;;;;29.98;12.55;;;;;;;-13.15;100.00;102768.35;1755157;79;20984;-86
2023/01/08 01:14:39;;;;;;;35.65;11.88;;;;;;;-13.15;100.00;102754.09;1757171;80;21595;-85
2023/01/08 01:17:05;;;;;;;35.15;12.18;;;;;;;-13.18;100.00;102760.67;1761942;80;21196;-85
2023/01/08 01:19:31;;;;;;;33.65;11.05;;;;;;;-13.15;100.00;102762.33;1757481;80;21171;-84
2023/01/08 01:21:58;;;;;;;37.08;11.63;;;;;;;-13.15;100.00;102761.03;1754899;80;21020;-86
2023/01/08 01:24:24;;;;;;;33.60;11.65;;;;;;;-13.14;100.00;102762.28;1748836;80;21062;-85
2023/01/08 01:26:51;;;;;;;31.50;11.78;;;;;;;-13.10;100.00;102764.31;1763710;80;21431;-86
2023/01/08 01:29:17;;;;;;;31.27;11.10;;;;;;;-13.17;100.00;102759.80;1770639;80;21007;-85
2023/01/08 01:31:43;;;;;;;31.55;11.68;;;;;;;-13.17;100.00;102759.80;1783423;80;21073;-86
2023/01/08 01:34:10;;;;;;;30.43;11.22;;;;;;;-13.14;100.00;102759.69;1779992;79;21043;-86
2023/01/08 01:36:37;;;;;;;36.15;11.43;;;;;;;-13.14;100.00;102754.50;1772743;80;21090;-86
2023/01/08 01:39:03;;;;;;;33.02;10.38;;;;;;;-13.15;100.00;102761.03;1772717;80;21027;-84
2023/01/08 01:41:38;;;;;;;32.35;11.97;;;;;;;-13.13;100.00;102761.83;1767655;80;21086;-85
2023/01/08 01:44:38;;;;;;;29.75;10.88;;;;;;;-13.15;100.00;102758.44;1768624;80;21016;-84
2023/01/08 01:47:31;;;;;;;34.80;11.43;;;;;;;-13.18;100.00;102759.38;1693848;83;21533;-85
2023/01/08 01:50:06;;;;;;;;;;;;;;;-13.19;100.00;102764.64;1690965;83;21018;-84
2023/01/08 01:52:43;;;;;;;29.00;10.38;;;;;;;-13.22;100.00;102762.98;1684757;83;20453;-84
2023/01/08 01:55:12;;;;;;;32.95;11.30;;;;;;;-13.22;100.00;102760.40;1641748;85;21122;-85
2023/01/08 01:57:39;;;;;;;34.98;12.13;;;;;;;-13.17;100.00;102758.95;1672159;85;21914;-85
2023/01/08 02:00:08;;;;;;;29.07;10.80;;;;;;;-13.23;100.00;102754.83;1658555;84;21046;-84
2023/01/08 02:02:34;;;;;;;36.75;11.78;;;;;;;-13.17;100.00;102760.25;1675459;85;21098;-84
2023/01/08 02:05:01;;;;;;;32.58;11.25;;;;;;;-13.15;100.00;102759.73;1666769;84;21050;-82
2023/01/08 02:07:49;;;;;;;31.40;10.80;;;;;;;-13.19;100.00;102753.80;1660033;85;21138;-85
2023/01/08 02:10:26;;;;;;;29.37;10.38;;;;;;;-13.18;100.00;102753.35;1661024;84;21186;-85
2023/01/08 02:13:01;;;;;;;35.58;12.05;;;;;;;-13.19;100.00;102755.11;1661449;85;21195;-85
2023/01/08 02:15:35;;;;;;;35.98;11.83;;;;;;;-13.18;100.00;102752.05;1669208;85;20962;-84
2023/01/08 02:18:21;;;;;;;35.95;12.05;;;;;;;-13.12;100.00;102751.38;1620901;88;21094;-83
2023/01/08 02:21:05;;;;;;;31.07;11.63;;;;;;;-13.12;100.00;102755.28;1611491;88;21050;-85
2023/01/08 02:23:54;;;;;;;26.77;11.40;;;;;;;-13.16;100.00;102760.19;1611445;89;21141;-83
2023/01/08 02:26:32;;;;;;;34.88;10.72;;;;;;;-13.17;100.00;102752.02;1609017;89;21036;-82
2023/01/08 02:29:08;;;;;;;28.20;9.53;;;;;;;-13.13;100.00;102756.19;1579380;90;21057;-83
2023/01/08 02:31:38;;;;;;;30.45;9.95;;;;;;;-13.15;100.00;102757.14;1557751;92;21111;-84
2023/01/08 02:34:04;;;;;;;28.10;10.08;;;;;;;-13.12;100.00;102757.03;1554973;92;21110;-84
2023/01/08 02:36:46;;;;;;;26.02;9.78;;;;;;;-13.16;100.00;102759.34;1555045;91;21438;-85
2023/01/08 02:39:35;;;;;;;28.75;10.38;;;;;;;-13.15;100.00;102757.14;1555444;91;21067;-86
2023/01/08 02:42:27;;;;;;;25.37;10.15;;;;;;;-13.18;100.00;102758.54;1570120;90;21086;-83
2023/01/08 02:45:16;;;;;;;28.90;10.00;;;;;;;-13.16;100.00;102757.59;1581792;90;21138;-85
2023/01/08 02:48:15;;;;;;;33.35;10.95;;;;;;;-13.21;100.00;102763.83;1581707;90;21090;-83
2023/01/08 02:50:49;;;;;;;29.23;9.68;;;;;;;-13.24;100.00;102761.34;1581944;90;21804;-84
2023/01/08 02:53:23;;;;;;;27.07;10.25;;;;;;;-13.23;100.00;102760.44;1553645;91;21060;-85
2023/01/08 02:55:54;;;;;;;28.02;9.25;;;;;;;-13.30;100.00;102761.13;1576582;89;21194;-91
2023/01/08 02:58:24;;;;;;;28.62;10.32;;;;;;;-13.24;100.00;102763.48;1589127;89;21250;-82
2023/01/08 03:00:51;;;;;;;33.10;10.18;;;;;;;-13.29;100.00;102768.87;1593718;89;21215;-84
2023/01/08 03:03:22;;;;;;;27.58;10.25;;;;;;;-13.27;100.00;102767.51;1594427;89;21142;-83
2023/01/08 03:05:56;;;;;;;29.67;10.13;;;;;;;-13.24;100.00;102767.83;1574823;90;21102;-86
2023/01/08 03:08:24;;;;;;;26.55;9.33;;;;;;;-13.23;100.00;102764.33;1535350;91;21172;-84
2023/01/08 03:11:06;;;;;;;29.37;10.98;;;;;;;-13.27;100.00;102769.65;1563179;90;21132;-85
2023/01/08 03:14:10;;;;;;;29.57;10.38;;;;;;;-13.24;100.00;102765.23;1587083;89;21091;-83
2023/01/08 03:16:50;;;;;;;26.70;9.83;;;;;;;-13.27;100.00;102763.16;1589373;89;21104;-85
2023/01/08 03:19:24;;;;;;;25.40;8.75;;;;;;;-13.24;100.00;102767.38;1562504;90;21091;-85
2023/01/08 03:21:51;;;;;;;22.98;9.85;;;;;;;-13.27;100.00;102764.46;1570066;90;21106;-85
2023/01/08 03:24:22;;;;;;;27.27;9.20;;;;;;;-13.30;100.00;102769.75;1567847;90;21178;-85
2023/01/08 03:26:51;;;;;;;29.87;10.08;;;;;;;-13.29;100.00;102772.77;1588229;89;21658;-84
2023/01/08 03:29:20;;;;;;;32.98;10.48;;;;;;;-13.27;100.00;102765.76;1598981;89;21200;-84
2023/01/08 03:31:48;;;;;;;25.10;9.70;;;;;;;-13.29;100.00;102762.39;1593660;89;21085;-85
2023/01/08 03:34:16;;;;;;;24.25;9.28;;;;;;;-13.24;100.00;102766.53;1591684;89;21161;-84
2023/01/08 03:36:46;;;;;;;25.88;9.18;;;;;;;-13.20;100.00;102761.66;1585514;89;21620;-84
2023/01/08 03:39:17;;;;;;;26.57;9.30;;;;;;;-13.15;100.00;102765.76;1596053;89;21153;-83
2023/01/08 03:41:43;;;;;;;26.60;9.88;;;;;;;-13.19;100.00;102768.53;1542641;92;21196;-84
2023/01/08 03:44:10;;;;;;;23.40;8.80;;;;;;;-13.20;100.00;102772.03;1518818;94;21175;-86
2023/01/08 03:46:41;;;;;;;25.88;9.60;;;;;;;-13.17;100.00;102777.95;1569189;91;21050;-85
2023/01/08 03:49:09;;;;;;;23.87;9.35;;;;;;;-13.27;100.00;102770.95;1562636;90;21133;-86
2023/01/08 03:51:46;;;;;;;27.67;9.63;;;;;;;-13.28;100.00;102773.16;1587989;89;21086;-86
2023/01/08 03:54:20;;;;;;;28.02;9.25;;;;;;;-13.26;100.00;102769.23;1592098;89;21221;-84
2023/01/08 03:56:46;;;;;;;27.05;9.98;;;;;;;-13.27;100.00;102764.46;1601674;89;21042;-85
2023/01/08 03:59:14;;;;;;;28.15;9.58;;;;;;;-13.28;100.00;102765.83;1594096;89;21094;-83
2023/01/08 04:01:41;;;;;;;24.95;9.30;;;;;;;-13.31;100.00;102768.07;1591624;88;21204;-85
2023/01/08 04:04:08;;;;;;;25.77;9.40;;;;;;;-13.33;100.00;102767.27;1599740;88;21037;-85
2023/01/08 04:06:34;;;;;;;27.65;10.03;;;;;;;-13.32;100.00;102767.69;1640510;86;21086;-85
2023/01/08 04:09:00;;;;;;;24.85;9.25;;;;;;;-13.31;100.00;102763.34;1645822;84;21138;-84
2023/01/08 04:11:27;;;;;;;29.12;10.05;;;;;;;-13.34;100.00;102763.44;1675373;84;21072;-84
2023/01/08 04:13:53;;;;;;;25.82;9.43;;;;;;;-13.30;100.00;102772.34;1661403;84;21084;-84
2023/01/08 04:16:19;;;;;;;30.95;9.98;;;;;;;-13.23;100.00;102774.27;1660673;84;21748;-85
2023/01/08 04:18:45;;;;;;;32.20;10.72;;;;;;;-13.27;100.00;102778.72;1665314;84;21133;-85
2023/01/08 04:21:12;;;;;;;32.03;10.85;;;;;;;-13.27;100.00;102770.11;1661353;84;20992;-85
2023/01/08 04:23:38;;;;;;;24.67;10.28;;;;;;;-13.27;100.00;102774.84;1672434;84;21115;-84
2023/01/08 04:26:08;;;;;;;31.45;10.82;;;;;;;-13.28;100.00;102777.50;1676097;84;21201;-84
2023/01/08 04:28:35;;;;;;;31.93;10.70;;;;;;;-13.28;100.00;102776.20;1667775;84;21644;-85
2023/01/08 04:31:09;;;;;;;24.40;9.73;;;;;;;-13.34;100.00;102782.44;1661448;85;21192;-82
2023/01/08 04:33:35;;;;;;;26.75;9.53;;;;;;;-13.31;100.00;102778.44;1674334;84;21091;-85
2023/01/08 04:36:03;;;;;;;34.25;10.58;;;;;;;-13.35;100.00;102788.95;1673762;84;21150;-84
2023/01/08 04:38:30;;;;;;;23.55;9.43;;;;;;;-13.40;100.00;102788.28;1715370;80;21610;-85
2023/01/08 04:40:59;;;;;;;30.25;10.60;;;;;;;-13.40;100.00;102789.13;1772661;80;21042;-90
2023/01/08 04:43:26;;;;;;;25.20;8.93;;;;;;;-13.46;100.00;102785.44;1657177;85;21929;-85
2023/01/08 04:45:58;;;;;;;25.52;9.80;;;;;;;-13.48;100.00;102785.09;1660849;84;21047;-85
2023/01/08 04:48:24;;;;;;;28.17;9.97;;;;;;;-13.50;100.00;102790.31;1659765;85;21552;-85
2023/01/08 04:50:50;;;;;;;29.45;9.88;;;;;;;-13.61;100.00;102796.31;1651985;85;21650;-90
2023/01/08 04:53:16;;;;;;;29.07;10.00;;;;;;;-13.62;100.00;102792.00;1662428;84;21670;-84
2023/01/08 04:55:43;;;;;;;31.65;10.82;;;;;;;-13.64;100.00;102793.36;1662774;84;22277;-85
2023/01/08 04:58:09;;;;;;;33.18;10.15;;;;;;;-13.64;100.00;102788.63;1651851;84;21567;-86
2023/01/08 05:00:35;;;;;;;31.23;10.50;;;;;;;-13.67;100.00;102799.09;1656885;84;21180;-85
2023/01/08 05:03:02;;;;;;;30.20;10.18;;;;;;;-13.68;100.00;102795.63;1642556;85;21070;-85
2023/01/08 05:05:28;;;;;;;26.90;9.80;;;;;;;-13.69;100.00;102795.25;1664495;85;21035;-85
2023/01/08 05:07:54;;;;;;;34.10;10.08;;;;;;;-13.71;100.00;102805.25;1662595;85;21115;-84
2023/01/08 05:10:21;;;;;;;29.92;9.88;;;;;;;-13.71;100.00;102807.84;1636752;86;21127;-83
2023/01/08 05:12:47;;;;;;;48.48;15.30;;;;;;;-13.72;100.00;102804.87;1665203;84;21267;-85
2023/01/08 05:15:14;;;;;;;49.50;15.08;;;;;;;-13.72;100.00;102810.89;1673732;84;21110;-84
2023/01/08 05:17:40;;;;;;;42.58;13.10;;;;;;;-13.72;100.00;102816.53;1668480;85;21595;-86
2023/01/08 05:20:08;;;;;;;50.95;13.93;;;;;;;-13.70;100.00;102821.19;1669491;85;21070;-85
2023/01/08 05:22:34;;;;;;;33.25;11.57;;;;;;;-13.73;100.00;102816.98;1673635;85;20997;-85
2023/01/08 05:25:01;;;;;;;50.65;14.65;;;;;;;-13.68;100.00;102812.48;1665035;85;21039;-82
2023/01/08 05:27:28;;;;;;;35.52;11.90;;;;;;;-13.64;100.00;102811.96;1665210;84;21212;-85
2023/01/08 05:29:54;;;;;;;32.63;11.38;;;;;;;-13.62;100.00;102816.63;1655480;85;21030;-84
2023/01/08 05:32:21;;;;;;;53.55;13.45;;;;;;;-13.62;100.00;102819.22;1660406;85;21847;-85
2023/01/08 05:34:47;;;;;;;44.58;12.95;;;;;;;-13.57;100.00;102826.41;1677149;85;21599;-84
2023/01/08 05:37:13;;;;;;;32.35;12.03;;;;;;;-13.55;100.00;102828.52;1682461;85;21503;-85
2023/01/08 05:39:39;;;;;;;57.15;18.20;;;;;;;-13.58;100.00;102828.61;1689199;80;21559;-89
2023/01/08 05:42:06;;;;;;;55.33;17.15;;;;;;;-13.53;100.00;102837.06;1766704;79;21034;-85
2023/01/08 05:44:32;;;;;;;41.08;13.38;;;;;;;-13.48;100.00;102839.08;1756186;80;21114;-85
2023/01/08 05:46:58;;;;;;;45.45;13.50;;;;;;;-13.47;100.00;102842.52;1779006;80;21022;-85
2023/01/08 05:49:24;;;;;;;33.67;11.85;;;;;;;-13.46;100.00;102836.00;1763928;80;21031;-85
2023/01/08 05:51:51;;;;;;;31.20;10.98;;;;;;;-13.47;100.00;102839.46;1773666;80;21038;-82
2023/01/08 05:54:17;;;;;;;45.63;14.50;;;;;;;-13.54;100.00;102834.09;1783634;80;21077;-86
2023/01/08 05:56:44;;;;;;;32.00;11.43;;;;;;;-13.48;100.00;102835.64;1771197;80;21089;-83
2023/01/08 05:59:12;;;;;;;38.70;12.23;;;;;;;-13.53;100.00;102834.05;1761235;80;21035;-85
2023/01/08 06:01:38;;;;;;;37.17;11.53;;;;;;;-13.46;100.00;102839.88;1768502;80;20987;-85
2023/01/08 06:04:05;;;;;;;29.75;11.57;;;;;;;-13.33;100.00;102837.73;1779089;80;21078;-84
2023/01/08 06:06:31;;;;;;;30.45;10.55;;;;;;;-13.22;100.00;102843.84;1774408;79;21066;-83
2023/01/08 06:08:57;;;;;;;32.83;11.97;;;;;;;-13.23;100.00;102843.43;1778200;79;21876;-82
2023/01/08 06:11:23;;;;;;;48.25;12.93;;;;;;;-13.22;100.00;102846.44;1770929;80;21492;-85
2023/01/08 06:17:31;;;;;;;33.83;11.75;;;;;;;-13.27;100.00;102851.34;1773302;80;21083;-86
2023/01/08 06:20:05;;;;;;;28.85;11.43;;;;;;;-13.34;100.00;102844.67;1772801;79;21522;-83
2023/01/08 06:22:26;;;;;;;31.73;11.57;;;;;;;-13.31;100.00;102850.21;1772918;80;21003;-85
2023/01/08 06:24:53;;;;;;;30.80;12.07;;;;;;;-13.29;100.00;102853.16;1753261;80;21138;-82
2023/01/08 06:27:19;;;;;;;37.15;11.95;;;;;;;-13.06;100.00;102864.05;1780690;80;20999;-85
2023/01/08 06:29:47;;;;;;;31.93;9.95;;;;;;;-12.16;100.00;102857.89;1778559;80;21015;-84
2023/01/08 06:34:41;;;;;;;30.88;9.63;;;;;;;-10.43;100.00;102849.56;1643200;86;22334;-83
2023/01/08 06:40:12;;;;;;;30.27;10.58;;;;;;;-10.42;100.00;102847.80;1637824;86;21062;-84
2023/01/08 06:42:38;;;;;;;33.18;10.78;;;;;;;-10.27;100.00;102850.19;1647492;86;21145;-86
2023/01/08 06:45:06;;;;;;;27.93;10.00;;;;;;;-9.50;100.00;102852.23;1647800;85;21031;-85
2023/01/08 06:47:33;;;;;;;31.80;9.83;;;;;;;-8.52;100.00;102840.80;1645607;86;21096;-86
2023/01/08 06:49:59;;;;;;;31.90;10.85;;;;;;;-8.12;100.00;102842.56;1643539;86;21078;-86
2023/01/08 06:52:26;;;;;;;25.97;10.40;;;;;;;-7.29;100.00;102844.99;1635078;86;21062;-86
2023/01/08 06:54:52;;;;;;;26.82;10.90;;;;;;;-6.92;100.00;102843.25;1643915;85;21090;-87
2023/01/08 06:57:18;;;;;;;27.70;10.23;;;;;;;-5.91;100.00;102839.32;1643335;85;21078;-87
2023/01/08 06:59:44;;;;;;;25.00;10.45;;;;;;;-5.34;100.00;102841.81;1639980;86;21152;-87
2023/01/08 07:02:15;;;;;;;30.55;10.48;;;;;;;-4.36;100.00;102837.83;1648622;85;21086;-84
2023/01/08 07:04:41;;;;;;;25.43;10.82;;;;;;;-3.78;100.00;102845.58;1649094;86;21081;-84
2023/01/08 07:10:36;;;;;;;26.97;11.50;;;;;;;-2.53;93.05;102842.01;1651536;86;21098;-86
2023/01/08 07:13:02;;;;;;;25.72;11.33;;;;;;;-1.33;91.21;102846.19;1639586;86;21189;-85
2023/01/08 07:15:29;;;;;;;27.77;11.75;;;;;;;-0.96;84.96;102840.03;1641988;86;21111;-86
2023/01/08 07:17:55;;;;;;;26.02;10.90;;;;;;;-0.24;78.42;102841.37;1639510;86;21203;-86
2023/01/08 07:20:21;;;;;;;33.90;12.68;;;;;;;-0.54;76.12;102845.30;1647885;86;21015;-84
2023/01/08 07:22:47;;;;;;;29.45;11.80;;;;;;;0.05;73.23;102848.56;1643704;86;21651;-85
2023/01/08 07:25:14;;;;;;;26.12;11.70;;;;;;;0.44;71.35;102855.28;1634775;85;21129;-86
2023/01/08 07:27:40;;;;;;;26.17;11.40;;;;;;;0.73;65.29;102857.98;1639824;85;20999;-88
2023/01/08 07:30:07;;;;;;;25.20;10.03;;;;;;;0.80;61.84;102864.92;1643587;86;21218;-86
2023/01/08 07:32:34;;;;;;;24.32;11.45;;;;;;;0.68;60.70;102860.23;1754429;80;20972;-88
2023/01/08 07:35:00;;;;;;;23.90;10.43;;;;;;;1.24;59.98;102865.33;1754291;80;21051;-92
2023/01/08 07:37:26;;;;;;;26.10;11.88;;;;;;;1.34;59.15;102860.33;1777042;80;21072;-87
2023/01/08 07:43:21;;;;;;;25.75;11.45;;;;;;;2.19;57.34;102855.83;1752649;80;21015;-87
2023/01/08 07:45:47;;;;;;;26.77;11.65;;;;;;;2.39;54.81;102865.05;1748933;80;21031;-88
2023/01/08 07:48:15;;;;;;;23.57;10.75;;;;;;;2.69;54.19;102871.84;1764935;80;21042;-89
2023/01/08 07:54:22;;;;;;;19.85;10.00;;;;;;;2.51;50.78;102879.80;1773512;80;21516;-83
2023/01/08 07:56:48;;;;;;;20.97;10.35;;;;;;;2.48;49.92;102885.43;1764745;80;21050;-85
2023/01/08 07:59:14;;;;;;;23.10;10.40;;;;;;;2.94;48.07;102887.07;1760654;80;21095;-84
2023/01/08 08:01:40;;;;;;;29.30;12.88;;;;;;;2.59;45.78;102890.55;1757096;80;21038;-90
2023/01/08 08:04:06;;;;;;;34.90;15.40;;;;;;;3.14;49.16;102885.05;1785472;79;21054;-85
2023/01/08 08:06:33;;;;;;;23.00;10.90;;;;;;;3.66;47.17;102882.12;1778547;80;21019;-85
2023/01/08 08:08:59;;;;;;;29.63;10.88;;;;;;;4.05;48.27;102869.97;1775532;79;21070;-85
2023/01/08 08:11:26;;;;;;;25.45;10.43;;;;;;;4.67;46.12;102868.83;1776881;80;21004;-85
2023/01/08 08:13:52;;;;;;;21.52;11.48;;;;;;;4.82;43.75;102877.03;1757530;80;21157;-88
2023/01/08 08:16:18;;;;;;;24.40;10.80;;;;;;;4.28;43.35;102870.73;1769269;80;21160;-84
2023/01/08 08:18:44;;;;;;;27.25;12.00;;;;;;;4.25;43.90;102881.73;1782900;80;21594;-85
2023/01/08 08:21:13;;;;;;;24.18;11.55;;;;;;;4.19;42.40;102885.05;1771909;80;21574;-85
2023/01/08 08:23:40;;;;;;;22.02;11.55;;;;;;;3.93;41.85;102883.77;1753418;80;21000;-85
2023/01/08 08:26:06;;;;;;;26.62;11.55;;;;;;;3.48;40.92;102884.33;1767896;79;21011;-89
2023/01/08 08:28:32;;;;;;;24.50;10.82;;;;;;;2.41;41.66;102880.34;1767481;80;21552;-87
2023/01/08 08:30:59;;;;;;;25.25;11.63;;;;;;;2.27;41.57;102871.06;1755528;80;21517;-88
2023/01/08 08:33:25;;;;;;;26.45;11.78;;;;;;;1.25;42.21;102874.95;1779407;80;20963;-86
2023/01/08 08:35:51;;;;;;;30.08;11.73;;;;;;;-0.52;42.39;102871.19;1783916;80;21026;-87
2023/01/08 08:38:18;;;;;;;27.15;10.80;;;;;;;-2.35;43.01;102875.39;1754553;80;21055;-88
2023/01/08 08:40:44;;;;;;;27.17;10.45;;;;;;;-3.89;44.18;102876.63;1766122;80;21191;-89
2023/01/08 08:43:10;;;;;;;29.63;10.43;;;;;;;-5.25;45.28;102870.11;1756980;80;21098;-90
2023/01/08 08:45:36;;;;;;;29.12;11.22;;;;;;;-6.55;48.10;102876.48;1768544;80;21544;-87
2023/01/08 08:48:06;;;;;;;23.80;8.90;;;;;;;-7.27;48.68;102879.34;1772678;80;21035;-86
2023/01/08 08:50:34;;;;;;;26.57;9.65;;;;;;;-7.88;49.74;102874.88;1769679;80;21034;-86
2023/01/08 08:53:02;;;;;;;31.33;11.18;;;;;;;-8.33;50.65;102870.70;1760458;80;21039;-86
2023/01/08 08:55:28;;;;;;;27.70;10.58;;;;;;;-8.85;51.89;102859.05;1769643;80;20983;-84
2023/01/08 08:58:04;;;;;;;25.40;11.45;;;;;;;-8.93;52.86;102862.51;1773971;80;21086;-86
2023/01/08 09:00:30;;;;;;;31.85;11.50;;;;;;;-9.44;54.10;102863.68;1759385;80;21015;-92
2023/01/08 09:02:56;;;;;;;29.95;10.60;;;;;;;-9.67;57.12;102860.84;1769967;80;21033;-86
2023/01/08 09:09:03;;;;;;;30.12;10.78;;;;;;;-9.77;58.99;102868.70;1751698;80;21027;-84
2023/01/08 09:11:31;;;;;;;33.35;11.38;;;;;;;-9.97;60.71;102869.64;1770295;80;21515;-86
2023/01/08 09:13:59;;;;;;;34.27;11.57;;;;;;;-9.90;62.58;102865.83;1772022;80;21043;-83
2023/01/08 09:16:25;;;;;;;31.23;10.85;;;;;;;-10.04;63.04;102857.78;1761710;79;21038;-86
2023/01/08 09:22:32;;;;;;;36.28;12.60;;;;;;;-10.04;64.94;102855.64;1780486;80;21007;-85
2023/01/08 09:24:58;;;;;;;35.35;12.13;;;;;;;-10.03;65.24;102849.50;1748466;80;21182;-84
2023/01/08 09:27:25;;;;;;;34.80;10.38;;;;;;;-10.13;65.85;102842.56;1776074;80;20995;-85
2023/01/08 09:33:32;;;;;;;33.92;12.05;;;;;;;-10.01;66.41;102840.69;1765180;80;21032;-87
2023/01/08 09:35:58;;;;;;;40.80;13.00;;;;;;;-9.90;66.29;102838.44;1764474;80;20983;-86
2023/01/08 09:38:24;;;;;;;34.00;12.07;;;;;;;-9.84;68.80;102834.70;1786059;80;21483;-87
2023/01/08 09:41:04;;;;;;;32.30;11.85;;;;;;;-9.88;70.43;102835.31;1770213;80;21015;-93
2023/01/08 09:43:35;;;;;;;35.15;11.70;;;;;;;-9.95;71.52;102827.37;1777410;80;21511;-88
2023/01/08 09:46:05;;;;;;;39.70;12.82;;;;;;;-9.89;70.59;102830.16;1763847;80;21922;-83
2023/01/08 09:48:38;;;;;;;39.27;13.53;;;;;;;-9.91;71.06;102826.76;1786164;80;21018;-87
2023/01/08 09:51:08;;;;;;;40.00;12.75;;;;;;;-9.88;72.08;102834.01;1786244;80;21534;-87
2023/01/08 09:53:34;;;;;;;36.30;14.35;;;;;;;-9.83;72.75;102833.31;1770558;80;21011;-86
2023/01/08 09:56:04;;;;;;;37.75;12.13;;;;;;;-9.75;73.94;102825.61;1764541;80;20996;-91
2023/01/08 10:02:18;;;;;;;40.33;13.18;;;;;;;-9.84;75.01;102816.45;1778255;80;21552;-92
2023/01/08 10:04:47;;;;;;;39.40;13.22;;;;;;;-9.83;77.29;102809.00;1785929;80;21708;-85
2023/01/08 10:07:20;;;;;;;38.63;13.95;;;;;;;-9.74;78.99;102805.95;1760827;80;21071;-86
2023/01/08 10:09:50;;;;;;;38.80;12.78;;;;;;;-9.79;79.17;102804.48;1640345;85;21161;-84
2023/01/08 10:12:31;;;;;;;42.13;14.45;;;;;;;-9.79;78.89;102809.26;1632380;86;21120;-85
2023/01/08 10:15:07;;;;;;;36.38;13.43;;;;;;;-9.80;80.41;102799.72;1604212;88;21065;-84
2023/01/08 10:17:54;;;;;;;41.70;14.03;;;;;;;-9.69;81.31;102796.62;1538583;91;21093;-84
2023/01/08 10:20:23;;;;;;;40.35;13.58;;;;;;;-9.65;82.67;102802.06;1508576;94;21726;-85
2023/01/08 10:26:28;;;;;;;42.48;14.47;;;;;;;-9.63;83.41;102811.51;1501510;94;21738;-84
2023/01/08 10:29:16;;;;;;;39.03;13.40;;;;;;;-9.65;81.62;102810.73;1473593;95;21124;-83
2023/01/08 10:31:49;;;;;;;54.75;17.32;;;;;;;-9.64;81.65;102806.37;1469137;96;21166;-84
2023/01/08 10:34:27;;;;;;;42.05;16.05;;;;;;;-9.57;83.00;102805.62;1414037;100;21205;-83
2023/01/08 10:36:54;;;;;;;42.45;13.80;;;;;;;-9.47;84.92;102796.41;1346600;106;21245;-81
2023/01/08 10:39:25;;;;;;;50.43;15.13;;;;;;;-9.48;85.24;102794.73;1336364;105;21278;-80
2023/01/08 10:41:55;;;;;;;42.60;15.05;;;;;;;-9.42;85.22;102795.73;1342471;105;21208;-83
2023/01/08 10:44:24;;;;;;;40.28;13.75;;;;;;;-9.47;84.41;102801.20;1329103;105;21131;-83
2023/01/08 10:46:55;;;;;;;39.00;13.68;;;;;;;-9.38;83.61;102798.59;1339542;105;21117;-88
2023/01/08 10:49:40;;;;;;;47.23;16.60;;;;;;;-9.43;84.02;102800.11;1360161;105;21844;-82
2023/01/08 10:52:21;;;;;;;40.52;15.10;;;;;;;-9.43;84.79;102799.27;1363036;104;21709;-82
2023/01/08 10:54:47;;;;;;;45.63;14.35;;;;;;;-9.35;86.24;102801.48;1323694;107;21191;-83
2023/01/08 11:04:36;;;;;;;48.50;13.28;;;;;;;-9.25;85.62;102783.16;1313347;108;21233;-83
2023/01/08 11:07:07;;;;;;;42.85;13.60;;;;;;;-9.16;85.60;102784.00;1353988;103;21777;-84
2023/01/08 11:09:42;;;;;;;40.25;14.35;;;;;;;-9.16;85.29;102786.14;1344597;103;21134;-82
2023/01/08 11:12:36;;;;;;;37.25;13.22;;;;;;;-9.11;85.12;102784.62;1385374;101;21690;-82
2023/01/08 11:15:07;;;;;;;45.17;14.23;;;;;;;-9.13;85.26;102794.29;1424692;99;21197;-83
2023/01/08 11:17:35;;;;;;;43.25;14.13;;;;;;;-9.10;85.04;102792.83;1401729;100;21093;-82
2023/01/08 11:20:21;;;;;;;40.65;14.98;;;;;;;-9.02;86.38;102781.54;1390627;102;21685;-84
2023/01/08 11:26:30;;;;;;;41.42;12.93;;;;;;;-9.08;87.11;102788.84;1387123;102;21586;-84
2023/01/08 11:29:13;;;;;;;45.08;15.25;;;;;;;-9.08;84.52;102795.38;1383730;101;21598;-84
2023/01/08 11:31:52;;;;;;;;;;;;;;;-9.02;85.93;102798.98;1437570;96;21180;-82
2023/01/08 11:34:38;;;;;;;39.03;13.88;;;;;;;-8.95;88.92;102799.04;1541835;90;21287;-83
2023/01/08 11:37:13;;;;;;;44.70;13.85;;;;;;;-8.88;88.04;102814.80;1567736;89;21067;-82
2023/01/08 11:39:40;;;;;;;45.90;13.13;;;;;;;-8.84;87.09;102814.17;1601170;88;21541;-83
2023/01/08 11:42:37;;;;;;;35.33;13.80;;;;;;;-8.87;86.06;102806.50;1608150;89;21177;-82
2023/01/08 11:45:51;;;;;;;36.23;12.35;;;;;;;-8.89;86.91;102802.64;1604039;89;21658;-83
2023/01/08 11:49:03;;;;;;;43.25;14.55;;;;;;;-8.84;86.89;102805.03;1542680;91;21166;-83
2023/01/08 11:52:21;;;;;;;43.33;13.60;;;;;;;-8.81;87.40;102798.34;1537045;92;21107;-84
2023/01/08 11:55:22;;;;;;;46.10;14.03;;;;;;;-8.79;86.71;102795.20;1546138;92;21097;-82
2023/01/08 12:02:20;;;;;;;45.63;14.38;;;;;;;-8.78;88.47;102792.49;1551742;92;21196;-82
2023/01/08 12:05:36;;;;;;;39.80;12.95;;;;;;;-8.79;88.04;102784.28;1541158;92;22042;-83
2023/01/08 12:08:13;;;;;;;48.33;14.93;;;;;;;-8.80;87.74;102787.80;1528558;91;21053;-84
2023/01/08 12:11:00;;;;;;;52.50;17.32;;;;;;;-8.78;89.84;102788.58;1530366;92;21144;-83
2023/01/08 12:13:44;;;;;;;54.63;16.62;;;;;;;-8.77;88.78;102777.66;1529758;91;21978;-83
2023/01/08 12:16:31;;;;;;;44.75;14.73;;;;;;;-8.77;89.13;102779.80;1532238;92;21042;-84
2023/01/08 12:19:24;;;;;;;41.42;13.75;;;;;;;-8.74;90.01;102780.95;1545803;92;21061;-85
2023/01/08 12:22:31;;;;;;;61.98;18.95;;;;;;;-8.75;89.11;102781.05;1600499;87;21102;-83